sensor_id;sensor_type;location;lat;lon;timestamp;P1;durP1;ratioP1;P2;durP2;ratioP2
78453;SDS011;67750;55.832;49.124;2023-04-16T00:01:49;9.05;;;2.50;;
78453;SDS011;67750;55.832;49.124;2023-04-16T00:04:18;7.08;;;2.55;;
78453;SDS011;67750;55.832;49.124;2023-04-16T00:06:48;8.53;;;2.47;;
78453;SDS011;67750;55.832;49.124;2023-04-16T00:09:17;4.85;;;2.12;;
78453;SDS011;67750;55.832;49.124;2023-04-16T00:11:47;8.20;;;2.60;;
78453;SDS011;67750;55.832;49.124;2023-04-16T00:14:16;9.08;;;2.83;;
78453;SDS011;67750;55.832;49.124;2023-04-16T00:16:46;7.58;;;2.08;;
78453;SDS011;67750;55.832;49.124;2023-04-16T00:19:15;8.88;;;2.00;;
78453;SDS011;67750;55.832;49.124;2023-04-16T00:21:45;6.62;;;2.10;;
78453;SDS011;67750;55.832;49.124;2023-04-16T00:24:14;5.83;;;1.90;;
78453;SDS011;67750;55.832;49.124;2023-04-16T00:26:44;5.70;;;1.70;;
78453;SDS011;67750;55.832;49.124;2023-04-16T00:29:14;5.75;;;3.67;;
78453;SDS011;67750;55.832;49.124;2023-04-16T00:31:44;10.28;;;2.45;;
78453;SDS011;67750;55.832;49.124;2023-04-16T00:34:13;8.03;;;2.30;;
78453;SDS011;67750;55.832;49.124;2023-04-16T00:36:43;7.72;;;2.20;;
78453;SDS011;67750;55.832;49.124;2023-04-16T00:39:12;6.25;;;2.02;;
78453;SDS011;67750;55.832;49.124;2023-04-16T00:41:42;4.60;;;2.00;;
78453;SDS011;67750;55.832;49.124;2023-04-16T00:44:12;5.37;;;1.90;;
78453;SDS011;67750;55.832;49.124;2023-04-16T00:46:41;3.80;;;2.00;;
78453;SDS011;67750;55.832;49.124;2023-04-16T00:49:11;5.95;;;2.15;;
78453;SDS011;67750;55.832;49.124;2023-04-16T00:51:40;6.95;;;2.20;;
78453;SDS011;67750;55.832;49.124;2023-04-16T00:54:10;5.10;;;1.92;;
78453;SDS011;67750;55.832;49.124;2023-04-16T00:56:39;9.60;;;3.20;;
78453;SDS011;67750;55.832;49.124;2023-04-16T00:59:09;4.08;;;1.57;;
78453;SDS011;67750;55.832;49.124;2023-04-16T01:01:39;8.18;;;2.20;;
78453;SDS011;67750;55.832;49.124;2023-04-16T01:04:09;4.47;;;2.37;;
78453;SDS011;67750;55.832;49.124;2023-04-16T01:06:38;9.38;;;2.10;;
78453;SDS011;67750;55.832;49.124;2023-04-16T01:09:08;7.30;;;2.70;;
78453;SDS011;67750;55.832;49.124;2023-04-16T01:11:38;7.10;;;2.08;;
78453;SDS011;67750;55.832;49.124;2023-04-16T01:14:08;4.28;;;2.10;;
78453;SDS011;67750;55.832;49.124;2023-04-16T01:16:37;3.60;;;1.70;;
78453;SDS011;67750;55.832;49.124;2023-04-16T01:19:07;4.83;;;1.82;;
78453;SDS011;67750;55.832;49.124;2023-04-16T01:21:36;4.75;;;2.25;;
78453;SDS011;67750;55.832;49.124;2023-04-16T01:24:06;4.12;;;1.65;;
78453;SDS011;67750;55.832;49.124;2023-04-16T01:26:35;4.50;;;1.80;;
78453;SDS011;67750;55.832;49.124;2023-04-16T01:29:05;7.75;;;1.82;;
78453;SDS011;67750;55.832;49.124;2023-04-16T01:31:34;8.73;;;2.27;;
78453;SDS011;67750;55.832;49.124;2023-04-16T01:34:24;9.43;;;2.27;;
78453;SDS011;67750;55.832;49.124;2023-04-16T01:36:53;6.83;;;1.72;;
78453;SDS011;67750;55.832;49.124;2023-04-16T01:39:23;5.30;;;2.67;;
78453;SDS011;67750;55.832;49.124;2023-04-16T01:41:53;4.03;;;1.37;;
78453;SDS011;67750;55.832;49.124;2023-04-16T01:44:23;5.30;;;2.40;;
78453;SDS011;67750;55.832;49.124;2023-04-16T01:46:52;6.70;;;1.70;;
78453;SDS011;67750;55.832;49.124;2023-04-16T01:49:22;5.42;;;1.70;;
78453;SDS011;67750;55.832;49.124;2023-04-16T01:51:51;5.92;;;1.60;;
78453;SDS011;67750;55.832;49.124;2023-04-16T01:54:21;4.62;;;1.50;;
78453;SDS011;67750;55.832;49.124;2023-04-16T01:56:51;5.58;;;1.65;;
78453;SDS011;67750;55.832;49.124;2023-04-16T01:59:21;4.00;;;1.60;;
78453;SDS011;67750;55.832;49.124;2023-04-16T02:01:51;3.27;;;1.42;;
78453;SDS011;67750;55.832;49.124;2023-04-16T02:04:20;4.80;;;1.75;;
78453;SDS011;67750;55.832;49.124;2023-04-16T02:06:50;3.83;;;1.50;;
78453;SDS011;67750;55.832;49.124;2023-04-16T02:09:20;6.10;;;2.10;;
78453;SDS011;67750;55.832;49.124;2023-04-16T02:11:50;4.25;;;1.55;;
78453;SDS011;67750;55.832;49.124;2023-04-16T02:14:20;6.42;;;1.75;;
78453;SDS011;67750;55.832;49.124;2023-04-16T02:16:51;3.75;;;1.62;;
78453;SDS011;67750;55.832;49.124;2023-04-16T02:19:23;6.28;;;1.87;;
78453;SDS011;67750;55.832;49.124;2023-04-16T02:21:53;6.58;;;1.80;;
78453;SDS011;67750;55.832;49.124;2023-04-16T02:24:22;3.92;;;2.10;;
78453;SDS011;67750;55.832;49.124;2023-04-16T02:26:52;3.33;;;1.72;;
78453;SDS011;67750;55.832;49.124;2023-04-16T02:29:22;4.47;;;1.47;;
78453;SDS011;67750;55.832;49.124;2023-04-16T02:31:54;3.47;;;1.60;;
78453;SDS011;67750;55.832;49.124;2023-04-16T02:34:24;3.90;;;1.75;;
78453;SDS011;67750;55.832;49.124;2023-04-16T02:36:53;4.25;;;1.60;;
78453;SDS011;67750;55.832;49.124;2023-04-16T02:39:24;4.87;;;1.95;;
78453;SDS011;67750;55.832;49.124;2023-04-16T02:41:54;6.08;;;1.80;;
78453;SDS011;67750;55.832;49.124;2023-04-16T02:44:25;3.05;;;2.00;;
78453;SDS011;67750;55.832;49.124;2023-04-16T02:46:54;4.90;;;1.90;;
78453;SDS011;67750;55.832;49.124;2023-04-16T02:49:24;9.20;;;1.82;;
78453;SDS011;67750;55.832;49.124;2023-04-16T02:51:53;4.95;;;1.70;;
78453;SDS011;67750;55.832;49.124;2023-04-16T02:54:23;5.62;;;2.00;;
78453;SDS011;67750;55.832;49.124;2023-04-16T02:56:52;5.28;;;1.70;;
78453;SDS011;67750;55.832;49.124;2023-04-16T02:59:22;3.90;;;1.72;;
78453;SDS011;67750;55.832;49.124;2023-04-16T03:01:52;4.83;;;1.90;;
78453;SDS011;67750;55.832;49.124;2023-04-16T03:04:22;4.00;;;1.70;;
78453;SDS011;67750;55.832;49.124;2023-04-16T03:06:52;3.65;;;1.90;;
78453;SDS011;67750;55.832;49.124;2023-04-16T03:09:21;4.92;;;1.90;;
78453;SDS011;67750;55.832;49.124;2023-04-16T03:11:51;8.15;;;2.20;;
78453;SDS011;67750;55.832;49.124;2023-04-16T03:14:20;8.40;;;2.00;;
78453;SDS011;67750;55.832;49.124;2023-04-16T03:16:50;7.17;;;1.90;;
78453;SDS011;67750;55.832;49.124;2023-04-16T03:19:19;4.90;;;1.85;;
78453;SDS011;67750;55.832;49.124;2023-04-16T03:21:49;4.47;;;1.65;;
78453;SDS011;67750;55.832;49.124;2023-04-16T03:24:19;5.55;;;2.30;;
78453;SDS011;67750;55.832;49.124;2023-04-16T03:26:48;7.78;;;2.10;;
78453;SDS011;67750;55.832;49.124;2023-04-16T03:29:19;5.75;;;2.47;;
78453;SDS011;67750;55.832;49.124;2023-04-16T03:31:49;4.22;;;2.00;;
78453;SDS011;67750;55.832;49.124;2023-04-16T03:34:19;6.80;;;2.50;;
78453;SDS011;67750;55.832;49.124;2023-04-16T03:36:49;4.87;;;2.20;;
78453;SDS011;67750;55.832;49.124;2023-04-16T03:39:18;3.35;;;1.42;;
78453;SDS011;67750;55.832;49.124;2023-04-16T03:41:48;5.03;;;2.00;;
78453;SDS011;67750;55.832;49.124;2023-04-16T03:44:18;5.25;;;2.00;;
78453;SDS011;67750;55.832;49.124;2023-04-16T03:46:47;6.75;;;2.10;;
78453;SDS011;67750;55.832;49.124;2023-04-16T03:49:17;6.30;;;1.98;;
78453;SDS011;67750;55.832;49.124;2023-04-16T03:51:46;5.37;;;2.10;;
78453;SDS011;67750;55.832;49.124;2023-04-16T03:54:16;5.83;;;1.85;;
78453;SDS011;67750;55.832;49.124;2023-04-16T03:56:47;4.72;;;1.55;;
78453;SDS011;67750;55.832;49.124;2023-04-16T03:59:18;4.33;;;1.70;;
78453;SDS011;67750;55.832;49.124;2023-04-16T04:01:47;3.80;;;1.50;;
78453;SDS011;67750;55.832;49.124;2023-04-16T04:04:17;3.77;;;1.55;;
78453;SDS011;67750;55.832;49.124;2023-04-16T04:06:47;3.47;;;1.55;;
78453;SDS011;67750;55.832;49.124;2023-04-16T04:09:16;3.62;;;1.98;;
78453;SDS011;67750;55.832;49.124;2023-04-16T04:11:46;5.45;;;1.37;;
78453;SDS011;67750;55.832;49.124;2023-04-16T04:14:16;4.05;;;1.50;;
78453;SDS011;67750;55.832;49.124;2023-04-16T04:16:45;4.90;;;1.72;;
78453;SDS011;67750;55.832;49.124;2023-04-16T04:19:15;3.15;;;1.47;;
78453;SDS011;67750;55.832;49.124;2023-04-16T04:21:44;5.17;;;2.20;;
78453;SDS011;67750;55.832;49.124;2023-04-16T04:24:15;5.45;;;1.60;;
78453;SDS011;67750;55.832;49.124;2023-04-16T04:26:45;6.05;;;1.55;;
78453;SDS011;67750;55.832;49.124;2023-04-16T04:29:14;3.02;;;1.30;;
78453;SDS011;67750;55.832;49.124;2023-04-16T04:31:45;3.15;;;1.32;;
78453;SDS011;67750;55.832;49.124;2023-04-16T04:34:15;4.65;;;1.10;;
78453;SDS011;67750;55.832;49.124;2023-04-16T04:36:44;4.78;;;1.42;;
78453;SDS011;67750;55.832;49.124;2023-04-16T04:39:14;4.22;;;1.52;;
78453;SDS011;67750;55.832;49.124;2023-04-16T04:41:47;5.70;;;1.35;;
78453;SDS011;67750;55.832;49.124;2023-04-16T04:44:17;3.12;;;1.32;;
78453;SDS011;67750;55.832;49.124;2023-04-16T04:46:47;4.72;;;1.57;;
78453;SDS011;67750;55.832;49.124;2023-04-16T04:49:18;4.28;;;1.40;;
78453;SDS011;67750;55.832;49.124;2023-04-16T04:51:47;3.65;;;1.35;;
78453;SDS011;67750;55.832;49.124;2023-04-16T04:54:17;5.80;;;1.92;;
78453;SDS011;67750;55.832;49.124;2023-04-16T04:56:47;2.60;;;1.27;;
78453;SDS011;67750;55.832;49.124;2023-04-16T04:59:19;3.77;;;1.57;;
78453;SDS011;67750;55.832;49.124;2023-04-16T05:01:49;3.33;;;1.32;;
78453;SDS011;67750;55.832;49.124;2023-04-16T05:04:18;4.97;;;1.55;;
78453;SDS011;67750;55.832;49.124;2023-04-16T05:06:48;3.58;;;1.40;;
78453;SDS011;67750;55.832;49.124;2023-04-16T05:09:17;4.28;;;1.60;;
78453;SDS011;67750;55.832;49.124;2023-04-16T05:11:47;3.90;;;1.50;;
78453;SDS011;67750;55.832;49.124;2023-04-16T05:14:16;3.02;;;1.27;;
78453;SDS011;67750;55.832;49.124;2023-04-16T05:16:46;2.17;;;1.25;;
78453;SDS011;67750;55.832;49.124;2023-04-16T05:19:15;5.35;;;1.62;;
78453;SDS011;67750;55.832;49.124;2023-04-16T05:21:45;2.77;;;1.10;;
78453;SDS011;67750;55.832;49.124;2023-04-16T05:24:14;4.65;;;1.40;;
78453;SDS011;67750;55.832;49.124;2023-04-16T05:26:44;2.72;;;1.35;;
78453;SDS011;67750;55.832;49.124;2023-04-16T05:29:13;3.83;;;1.52;;
78453;SDS011;67750;55.832;49.124;2023-04-16T05:31:43;3.72;;;1.60;;
78453;SDS011;67750;55.832;49.124;2023-04-16T05:34:12;2.37;;;1.17;;
78453;SDS011;67750;55.832;49.124;2023-04-16T05:36:42;2.58;;;1.10;;
78453;SDS011;67750;55.832;49.124;2023-04-16T05:39:12;4.37;;;1.75;;
78453;SDS011;67750;55.832;49.124;2023-04-16T05:41:41;3.58;;;1.35;;
78453;SDS011;67750;55.832;49.124;2023-04-16T05:44:11;2.55;;;1.10;;
78453;SDS011;67750;55.832;49.124;2023-04-16T05:46:41;3.85;;;1.22;;
78453;SDS011;67750;55.832;49.124;2023-04-16T05:49:10;2.87;;;1.27;;
78453;SDS011;67750;55.832;49.124;2023-04-16T05:51:40;4.70;;;1.12;;
78453;SDS011;67750;55.832;49.124;2023-04-16T05:54:09;2.85;;;1.12;;
78453;SDS011;67750;55.832;49.124;2023-04-16T05:56:39;2.70;;;1.25;;
78453;SDS011;67750;55.832;49.124;2023-04-16T05:59:08;1.90;;;1.00;;
78453;SDS011;67750;55.832;49.124;2023-04-16T06:01:38;2.90;;;1.02;;
78453;SDS011;67750;55.832;49.124;2023-04-16T06:04:07;4.45;;;1.27;;
78453;SDS011;67750;55.832;49.124;2023-04-16T06:06:37;3.87;;;0.93;;
78453;SDS011;67750;55.832;49.124;2023-04-16T06:09:06;3.75;;;1.22;;
78453;SDS011;67750;55.832;49.124;2023-04-16T06:11:36;4.45;;;1.15;;
78453;SDS011;67750;55.832;49.124;2023-04-16T06:14:05;4.45;;;1.30;;
78453;SDS011;67750;55.832;49.124;2023-04-16T06:16:35;2.27;;;1.22;;
78453;SDS011;67750;55.832;49.124;2023-04-16T06:19:04;3.47;;;1.30;;
78453;SDS011;67750;55.832;49.124;2023-04-16T06:21:34;2.15;;;1.02;;
78453;SDS011;67750;55.832;49.124;2023-04-16T06:24:04;2.40;;;1.02;;
78453;SDS011;67750;55.832;49.124;2023-04-16T06:26:34;2.40;;;1.02;;
78453;SDS011;67750;55.832;49.124;2023-04-16T06:29:03;2.08;;;1.10;;
78453;SDS011;67750;55.832;49.124;2023-04-16T06:31:33;2.75;;;1.10;;
78453;SDS011;67750;55.832;49.124;2023-04-16T06:34:02;3.25;;;1.30;;
78453;SDS011;67750;55.832;49.124;2023-04-16T06:36:32;4.10;;;1.00;;
78453;SDS011;67750;55.832;49.124;2023-04-16T06:39:03;3.27;;;1.07;;
78453;SDS011;67750;55.832;49.124;2023-04-16T06:41:32;2.45;;;1.07;;
78453;SDS011;67750;55.832;49.124;2023-04-16T06:44:02;2.42;;;1.05;;
78453;SDS011;67750;55.832;49.124;2023-04-16T06:46:31;3.37;;;0.90;;
78453;SDS011;67750;55.832;49.124;2023-04-16T06:49:01;1.90;;;1.07;;
78453;SDS011;67750;55.832;49.124;2023-04-16T06:51:31;2.67;;;1.17;;
78453;SDS011;67750;55.832;49.124;2023-04-16T06:54:00;3.75;;;1.10;;
78453;SDS011;67750;55.832;49.124;2023-04-16T06:56:30;3.35;;;1.40;;
78453;SDS011;67750;55.832;49.124;2023-04-16T06:58:59;4.72;;;1.30;;
78453;SDS011;67750;55.832;49.124;2023-04-16T07:01:29;3.60;;;1.60;;
78453;SDS011;67750;55.832;49.124;2023-04-16T07:03:58;1.90;;;0.90;;
78453;SDS011;67750;55.832;49.124;2023-04-16T07:06:28;2.80;;;1.90;;
78453;SDS011;67750;55.832;49.124;2023-04-16T07:08:57;4.62;;;1.30;;
78453;SDS011;67750;55.832;49.124;2023-04-16T07:11:27;4.85;;;1.80;;
78453;SDS011;67750;55.832;49.124;2023-04-16T07:13:57;3.47;;;1.25;;
78453;SDS011;67750;55.832;49.124;2023-04-16T07:16:26;2.10;;;0.93;;
78453;SDS011;67750;55.832;49.124;2023-04-16T07:18:56;3.40;;;1.50;;
78453;SDS011;67750;55.832;49.124;2023-04-16T07:21:25;2.77;;;1.32;;
78453;SDS011;67750;55.832;49.124;2023-04-16T07:23:55;6.20;;;1.45;;
78453;SDS011;67750;55.832;49.124;2023-04-16T07:26:24;1.77;;;1.10;;
78453;SDS011;67750;55.832;49.124;2023-04-16T07:28:54;2.40;;;0.98;;
78453;SDS011;67750;55.832;49.124;2023-04-16T07:31:23;2.27;;;1.07;;
78453;SDS011;67750;55.832;49.124;2023-04-16T07:33:53;4.90;;;1.80;;
78453;SDS011;67750;55.832;49.124;2023-04-16T07:36:22;4.87;;;1.47;;
78453;SDS011;67750;55.832;49.124;2023-04-16T07:38:53;3.72;;;1.45;;
78453;SDS011;67750;55.832;49.124;2023-04-16T07:41:22;3.08;;;0.93;;
78453;SDS011;67750;55.832;49.124;2023-04-16T07:43:52;2.12;;;1.00;;
78453;SDS011;67750;55.832;49.124;2023-04-16T07:46:22;3.05;;;1.47;;
78453;SDS011;67750;55.832;49.124;2023-04-16T07:48:51;3.22;;;1.50;;
78453;SDS011;67750;55.832;49.124;2023-04-16T07:51:21;4.12;;;1.65;;
78453;SDS011;67750;55.832;49.124;2023-04-16T07:53:50;5.10;;;2.05;;
78453;SDS011;67750;55.832;49.124;2023-04-16T07:56:20;2.72;;;1.22;;
78453;SDS011;67750;55.832;49.124;2023-04-16T07:58:49;4.17;;;1.57;;
78453;SDS011;67750;55.832;49.124;2023-04-16T08:01:19;4.35;;;1.65;;
78453;SDS011;67750;55.832;49.124;2023-04-16T08:03:48;5.20;;;1.27;;
78453;SDS011;67750;55.832;49.124;2023-04-16T08:06:18;5.33;;;1.47;;
78453;SDS011;67750;55.832;49.124;2023-04-16T08:08:48;4.05;;;1.00;;
78453;SDS011;67750;55.832;49.124;2023-04-16T08:11:17;3.08;;;1.22;;
78453;SDS011;67750;55.832;49.124;2023-04-16T08:13:47;2.72;;;0.85;;
78453;SDS011;67750;55.832;49.124;2023-04-16T08:16:16;1.90;;;0.90;;
78453;SDS011;67750;55.832;49.124;2023-04-16T08:18:46;3.35;;;1.10;;
78453;SDS011;67750;55.832;49.124;2023-04-16T08:21:15;5.40;;;1.45;;
78453;SDS011;67750;55.832;49.124;2023-04-16T08:23:45;5.95;;;1.30;;
78453;SDS011;67750;55.832;49.124;2023-04-16T08:26:14;2.77;;;1.02;;
78453;SDS011;67750;55.832;49.124;2023-04-16T08:28:44;3.40;;;1.00;;
78453;SDS011;67750;55.832;49.124;2023-04-16T08:31:13;3.25;;;1.52;;
78453;SDS011;67750;55.832;49.124;2023-04-16T08:33:43;3.35;;;1.22;;
78453;SDS011;67750;55.832;49.124;2023-04-16T08:36:13;2.87;;;1.62;;
78453;SDS011;67750;55.832;49.124;2023-04-16T08:38:42;3.20;;;1.20;;
78453;SDS011;67750;55.832;49.124;2023-04-16T08:41:12;3.47;;;1.42;;
78453;SDS011;67750;55.832;49.124;2023-04-16T08:43:43;8.38;;;1.27;;
78453;SDS011;67750;55.832;49.124;2023-04-16T08:46:15;2.90;;;1.12;;
78453;SDS011;67750;55.832;49.124;2023-04-16T08:48:45;4.10;;;1.77;;
78453;SDS011;67750;55.832;49.124;2023-04-16T08:51:16;4.03;;;1.50;;
78453;SDS011;67750;55.832;49.124;2023-04-16T08:56:35;8.60;;;1.20;;
78453;SDS011;67750;55.832;49.124;2023-04-16T08:59:05;3.90;;;1.17;;
78453;SDS011;67750;55.832;49.124;2023-04-16T09:01:35;3.92;;;1.20;;
78453;SDS011;67750;55.832;49.124;2023-04-16T09:06:35;3.58;;;1.20;;
78453;SDS011;67750;55.832;49.124;2023-04-16T09:09:04;4.92;;;1.00;;
78453;SDS011;67750;55.832;49.124;2023-04-16T09:11:34;3.12;;;1.07;;
78453;SDS011;67750;55.832;49.124;2023-04-16T09:14:07;2.55;;;1.00;;
78453;SDS011;67750;55.832;49.124;2023-04-16T09:16:37;1.92;;;0.98;;
78453;SDS011;67750;55.832;49.124;2023-04-16T09:19:07;3.98;;;1.40;;
78453;SDS011;67750;55.832;49.124;2023-04-16T09:21:38;4.25;;;0.98;;
78453;SDS011;67750;55.832;49.124;2023-04-16T09:24:09;3.47;;;1.05;;
78453;SDS011;67750;55.832;49.124;2023-04-16T09:26:39;2.60;;;0.90;;
78453;SDS011;67750;55.832;49.124;2023-04-16T09:32:23;4.28;;;1.00;;
78453;SDS011;67750;55.832;49.124;2023-04-16T09:37:40;2.05;;;0.90;;
78453;SDS011;67750;55.832;49.124;2023-04-16T09:40:10;5.22;;;1.10;;
78453;SDS011;67750;55.832;49.124;2023-04-16T09:42:40;3.25;;;1.20;;
78453;SDS011;67750;55.832;49.124;2023-04-16T09:45:09;4.20;;;1.00;;
78453;SDS011;67750;55.832;49.124;2023-04-16T09:47:40;3.02;;;0.80;;
78453;SDS011;67750;55.832;49.124;2023-04-16T09:50:45;2.60;;;1.05;;
78453;SDS011;67750;55.832;49.124;2023-04-16T09:52:42;2.45;;;1.22;;
78453;SDS011;67750;55.832;49.124;2023-04-16T09:55:12;4.90;;;1.20;;
78453;SDS011;67750;55.832;49.124;2023-04-16T09:57:41;10.43;;;1.42;;
78453;SDS011;67750;55.832;49.124;2023-04-16T10:00:11;4.83;;;1.25;;
78453;SDS011;67750;55.832;49.124;2023-04-16T10:02:41;2.90;;;1.07;;
78453;SDS011;67750;55.832;49.124;2023-04-16T10:05:12;2.72;;;1.00;;
78453;SDS011;67750;55.832;49.124;2023-04-16T10:10:30;5.78;;;1.00;;
78453;SDS011;67750;55.832;49.124;2023-04-16T10:13:00;4.45;;;1.30;;
78453;SDS011;67750;55.832;49.124;2023-04-16T10:15:30;3.70;;;0.93;;
78453;SDS011;67750;55.832;49.124;2023-04-16T10:17:59;4.22;;;1.40;;
78453;SDS011;67750;55.832;49.124;2023-04-16T10:20:29;6.25;;;1.32;;
78453;SDS011;67750;55.832;49.124;2023-04-16T10:22:59;2.25;;;1.17;;
78453;SDS011;67750;55.832;49.124;2023-04-16T10:25:30;2.37;;;0.98;;
78453;SDS011;67750;55.832;49.124;2023-04-16T10:30:31;5.12;;;1.20;;
78453;SDS011;67750;55.832;49.124;2023-04-16T10:33:03;1.72;;;0.90;;
78453;SDS011;67750;55.832;49.124;2023-04-16T10:35:36;2.65;;;1.30;;
78453;SDS011;67750;55.832;49.124;2023-04-16T10:40:32;4.40;;;1.50;;
78453;SDS011;67750;55.832;49.124;2023-04-16T10:43:03;5.28;;;1.22;;
78453;SDS011;67750;55.832;49.124;2023-04-16T10:48:23;3.45;;;1.15;;
78453;SDS011;67750;55.832;49.124;2023-04-16T10:53:42;3.12;;;1.05;;
78453;SDS011;67750;55.832;49.124;2023-04-16T10:56:12;3.35;;;1.22;;
78453;SDS011;67750;55.832;49.124;2023-04-16T10:58:41;3.05;;;1.10;;
78453;SDS011;67750;55.832;49.124;2023-04-16T11:01:12;4.53;;;0.98;;
78453;SDS011;67750;55.832;49.124;2023-04-16T11:03:43;2.83;;;1.40;;
78453;SDS011;67750;55.832;49.124;2023-04-16T11:06:59;2.47;;;1.00;;
78453;SDS011;67750;55.832;49.124;2023-04-16T11:08:44;8.43;;;1.42;;
78453;SDS011;67750;55.832;49.124;2023-04-16T11:11:14;3.47;;;1.07;;
78453;SDS011;67750;55.832;49.124;2023-04-16T11:13:44;2.90;;;0.90;;
78453;SDS011;67750;55.832;49.124;2023-04-16T11:16:14;6.40;;;0.88;;
78453;SDS011;67750;55.832;49.124;2023-04-16T11:18:44;3.35;;;1.17;;
78453;SDS011;67750;55.832;49.124;2023-04-16T11:21:14;2.65;;;1.10;;
78453;SDS011;67750;55.832;49.124;2023-04-16T11:26:33;3.62;;;1.17;;
78453;SDS011;67750;55.832;49.124;2023-04-16T11:29:03;2.65;;;1.10;;
78453;SDS011;67750;55.832;49.124;2023-04-16T11:31:33;3.12;;;1.20;;
78453;SDS011;67750;55.832;49.124;2023-04-16T11:34:02;6.00;;;1.22;;
78453;SDS011;67750;55.832;49.124;2023-04-16T11:39:02;2.98;;;1.40;;
78453;SDS011;67750;55.832;49.124;2023-04-16T11:41:31;3.17;;;1.27;;
78453;SDS011;67750;55.832;49.124;2023-04-16T11:44:15;5.28;;;1.40;;
78453;SDS011;67750;55.832;49.124;2023-04-16T11:52:11;3.42;;;1.00;;
78453;SDS011;67750;55.832;49.124;2023-04-16T11:54:41;2.85;;;1.30;;
78453;SDS011;67750;55.832;49.124;2023-04-16T11:57:10;3.95;;;1.00;;
78453;SDS011;67750;55.832;49.124;2023-04-16T11:59:44;2.17;;;1.10;;
78453;SDS011;67750;55.832;49.124;2023-04-16T12:02:11;3.50;;;1.62;;
78453;SDS011;67750;55.832;49.124;2023-04-16T12:04:40;3.52;;;1.50;;
78453;SDS011;67750;55.832;49.124;2023-04-16T12:12:49;2.02;;;0.80;;
78453;SDS011;67750;55.832;49.124;2023-04-16T12:15:18;6.42;;;1.10;;
78453;SDS011;67750;55.832;49.124;2023-04-16T12:17:48;5.45;;;1.12;;
78453;SDS011;67750;55.832;49.124;2023-04-16T12:22:47;2.22;;;0.70;;
78453;SDS011;67750;55.832;49.124;2023-04-16T12:25:18;3.30;;;0.93;;
78453;SDS011;67750;55.832;49.124;2023-04-16T12:27:49;4.20;;;0.98;;
78453;SDS011;67750;55.832;49.124;2023-04-16T12:30:21;2.40;;;0.90;;
78453;SDS011;67750;55.832;49.124;2023-04-16T12:33:25;2.55;;;0.85;;
78453;SDS011;67750;55.832;49.124;2023-04-16T12:38:14;1.80;;;1.12;;
78453;SDS011;67750;55.832;49.124;2023-04-16T12:40:43;4.03;;;1.05;;
78453;SDS011;67750;55.832;49.124;2023-04-16T12:43:13;3.45;;;1.00;;
78453;SDS011;67750;55.832;49.124;2023-04-16T12:45:42;2.62;;;0.85;;
78453;SDS011;67750;55.832;49.124;2023-04-16T12:48:12;3.80;;;1.12;;
78453;SDS011;67750;55.832;49.124;2023-04-16T12:50:41;1.67;;;0.80;;
78453;SDS011;67750;55.832;49.124;2023-04-16T12:53:12;2.85;;;1.10;;
78453;SDS011;67750;55.832;49.124;2023-04-16T12:55:41;6.00;;;1.40;;
78453;SDS011;67750;55.832;49.124;2023-04-16T12:58:11;4.87;;;0.90;;
78453;SDS011;67750;55.832;49.124;2023-04-16T13:00:41;3.58;;;1.00;;
78453;SDS011;67750;55.832;49.124;2023-04-16T13:03:10;3.33;;;1.52;;
78453;SDS011;67750;55.832;49.124;2023-04-16T13:05:40;4.40;;;1.32;;
78453;SDS011;67750;55.832;49.124;2023-04-16T13:08:09;1.87;;;1.10;;
78453;SDS011;67750;55.832;49.124;2023-04-16T13:10:38;4.22;;;1.20;;
78453;SDS011;67750;55.832;49.124;2023-04-16T13:13:08;2.85;;;1.32;;
78453;SDS011;67750;55.832;49.124;2023-04-16T13:15:37;2.50;;;1.05;;
78453;SDS011;67750;55.832;49.124;2023-04-16T13:18:07;3.10;;;1.12;;
78453;SDS011;67750;55.832;49.124;2023-04-16T13:20:37;3.33;;;1.00;;
78453;SDS011;67750;55.832;49.124;2023-04-16T13:23:06;12.45;;;1.72;;
78453;SDS011;67750;55.832;49.124;2023-04-16T13:25:36;2.92;;;1.20;;
78453;SDS011;67750;55.832;49.124;2023-04-16T13:28:05;5.12;;;1.05;;
78453;SDS011;67750;55.832;49.124;2023-04-16T13:30:35;2.67;;;1.20;;
78453;SDS011;67750;55.832;49.124;2023-04-16T13:33:05;1.62;;;0.95;;
78453;SDS011;67750;55.832;49.124;2023-04-16T13:35:35;3.62;;;1.12;;
78453;SDS011;67750;55.832;49.124;2023-04-16T13:38:04;2.92;;;1.10;;
78453;SDS011;67750;55.832;49.124;2023-04-16T13:40:34;1.47;;;0.85;;
78453;SDS011;67750;55.832;49.124;2023-04-16T13:43:03;2.40;;;1.10;;
78453;SDS011;67750;55.832;49.124;2023-04-16T13:45:32;4.08;;;1.25;;
78453;SDS011;67750;55.832;49.124;2023-04-16T13:48:02;4.22;;;1.25;;
78453;SDS011;67750;55.832;49.124;2023-04-16T13:50:32;2.98;;;1.30;;
78453;SDS011;67750;55.832;49.124;2023-04-16T13:53:01;2.87;;;0.80;;
78453;SDS011;67750;55.832;49.124;2023-04-16T13:55:31;1.62;;;0.95;;
78453;SDS011;67750;55.832;49.124;2023-04-16T13:58:01;3.22;;;1.00;;
78453;SDS011;67750;55.832;49.124;2023-04-16T14:03:01;3.12;;;0.90;;
78453;SDS011;67750;55.832;49.124;2023-04-16T14:05:32;2.45;;;1.10;;
78453;SDS011;67750;55.832;49.124;2023-04-16T14:08:02;3.52;;;0.90;;
78453;SDS011;67750;55.832;49.124;2023-04-16T14:10:32;1.95;;;1.00;;
78453;SDS011;67750;55.832;49.124;2023-04-16T14:13:02;2.90;;;1.00;;
78453;SDS011;67750;55.832;49.124;2023-04-16T14:15:31;2.22;;;1.20;;
78453;SDS011;67750;55.832;49.124;2023-04-16T14:18:01;3.42;;;1.55;;
78453;SDS011;67750;55.832;49.124;2023-04-16T14:20:30;4.37;;;1.30;;
78453;SDS011;67750;55.832;49.124;2023-04-16T14:23:00;9.28;;;1.42;;
78453;SDS011;67750;55.832;49.124;2023-04-16T14:25:30;4.58;;;1.92;;
78453;SDS011;67750;55.832;49.124;2023-04-16T14:28:00;8.15;;;2.15;;
78453;SDS011;67750;55.832;49.124;2023-04-16T14:30:29;4.30;;;2.02;;
78453;SDS011;67750;55.832;49.124;2023-04-16T14:32:59;4.47;;;2.20;;
78453;SDS011;67750;55.832;49.124;2023-04-16T14:35:28;3.42;;;1.80;;
78453;SDS011;67750;55.832;49.124;2023-04-16T14:37:59;3.98;;;1.40;;
78453;SDS011;67750;55.832;49.124;2023-04-16T14:40:29;3.42;;;1.40;;
78453;SDS011;67750;55.832;49.124;2023-04-16T14:42:58;3.70;;;1.30;;
78453;SDS011;67750;55.832;49.124;2023-04-16T14:45:28;3.12;;;1.20;;
78453;SDS011;67750;55.832;49.124;2023-04-16T14:47:58;1.77;;;0.95;;
78453;SDS011;67750;55.832;49.124;2023-04-16T14:50:28;5.20;;;1.62;;
78453;SDS011;67750;55.832;49.124;2023-04-16T14:52:57;1.82;;;1.00;;
78453;SDS011;67750;55.832;49.124;2023-04-16T14:55:27;3.72;;;1.20;;
78453;SDS011;67750;55.832;49.124;2023-04-16T14:57:56;2.65;;;1.10;;
78453;SDS011;67750;55.832;49.124;2023-04-16T15:00:26;3.33;;;1.00;;
78453;SDS011;67750;55.832;49.124;2023-04-16T15:02:55;1.98;;;1.05;;
78453;SDS011;67750;55.832;49.124;2023-04-16T15:05:25;1.80;;;0.90;;
78453;SDS011;67750;55.832;49.124;2023-04-16T15:07:54;3.40;;;1.45;;
78453;SDS011;67750;55.832;49.124;2023-04-16T15:10:24;2.75;;;1.30;;
78453;SDS011;67750;55.832;49.124;2023-04-16T15:12:53;2.87;;;0.93;;
78453;SDS011;67750;55.832;49.124;2023-04-16T15:15:23;4.15;;;1.47;;
78453;SDS011;67750;55.832;49.124;2023-04-16T15:17:52;3.55;;;1.22;;
78453;SDS011;67750;55.832;49.124;2023-04-16T15:20:22;5.08;;;2.10;;
78453;SDS011;67750;55.832;49.124;2023-04-16T15:22:53;4.45;;;1.67;;
78453;SDS011;67750;55.832;49.124;2023-04-16T15:25:22;3.50;;;1.40;;
78453;SDS011;67750;55.832;49.124;2023-04-16T15:27:52;3.00;;;1.30;;
78453;SDS011;67750;55.832;49.124;2023-04-16T15:30:21;5.42;;;1.52;;
78453;SDS011;67750;55.832;49.124;2023-04-16T15:32:51;6.12;;;1.50;;
78453;SDS011;67750;55.832;49.124;2023-04-16T15:35:22;2.87;;;1.45;;
78453;SDS011;67750;55.832;49.124;2023-04-16T15:37:52;3.55;;;1.50;;